Time;durP1;ratioP1;P1;durP2;ratioP2;P2;SDS_P1;SDS_P2;PMS_P1;PMS_P2;Temp;Humidity;BMP_temperature;BMP_pressure;BME280_temperature;BME280_humidity;BME280_pressure;Samples;Min_cycle;Max_cycle;Signal;HPM_P1;HPM_P2
2022/12/23 00:02:42;;;;;;;14.68;9.13;;;;;;;17.09;59.29;95858.53;10439341;28;20041;-29
2022/12/23 00:07:43;;;;;;;11.38;7.80;;;;;;;17.09;58.97;95851.78;10439839;28;20025;-30
2022/12/23 00:18:03;;;;;;;12.82;8.73;;;;;;;17.05;59.62;95832.44;10443002;28;20055;-31
2022/12/23 00:23:05;;;;;;;13.70;8.93;;;;;;;17.10;58.87;95876.25;10435848;28;20523;-29
2022/12/23 00:28:15;;;;;;;12.55;8.57;;;;;;;17.12;58.43;95858.50;10437640;28;20033;-29
2022/12/23 00:33:17;;;;;;;11.30;7.70;;;;;;;17.12;58.43;95858.50;10432886;28;20080;-29
2022/12/23 00:42:52;;;;;;;13.07;8.10;;;;;;;17.11;58.98;95872.00;10428238;28;20036;-28
2022/12/23 00:43:39;;;;;;;11.23;8.30;;;;;;;17.13;58.74;95855.97;10428656;28;20029;-29
2022/12/23 00:53:59;;;;;;;11.73;7.93;;;;;;;17.13;60.10;95852.59;10444087;28;20040;-30
2022/12/23 00:58:59;;;;;;;9.93;8.03;;;;;;;17.12;60.30;95868.63;10442321;28;20037;-30
2022/12/23 01:09:18;;;;;;;9.85;7.15;;;;;;;17.10;59.80;95861.06;10446830;28;20735;-29
2022/12/23 01:14:19;;;;;;;10.40;7.57;;;;;;;17.09;59.85;95879.59;10442084;28;20033;-28
2022/12/23 01:19:20;;;;;;;9.40;7.07;;;;;;;17.10;59.45;95877.91;10443767;28;20029;-28
2022/12/23 01:24:20;;;;;;;9.60;6.80;;;;;;;17.04;59.21;95867.84;10443317;28;20024;-29
2022/12/23 01:29:20;;;;;;;9.93;6.95;;;;;;;17.08;59.42;95897.34;10448468;28;20059;-28
2022/12/23 01:34:21;;;;;;;10.13;6.93;;;;;;;17.08;59.20;95912.50;10434706;28;20033;-28
2022/12/23 01:39:21;;;;;;;10.38;7.30;;;;;;;17.08;59.28;95910.78;10439308;28;20790;-28
2022/12/23 01:44:48;;;;;;;9.50;7.53;;;;;;;17.04;59.74;95910.84;10444510;28;20626;-29
2022/12/23 01:49:51;;;;;;;9.03;6.27;;;;;;;17.07;59.17;95920.94;10438872;28;20587;-29
2022/12/23 01:54:54;;;;;;;9.43;6.53;;;;;;;17.09;59.51;95916.72;10442418;28;20033;-28
2022/12/23 02:05:13;;;;;;;8.02;6.22;;;;;;;17.12;59.57;95929.31;10435350;28;20041;-29
2022/12/23 02:10:13;;;;;;;9.88;6.43;;;;;;;17.11;60.36;95932.69;10442652;28;20048;-29
2022/12/23 02:20:52;;;;;;;10.25;6.78;;;;;;;17.12;59.21;95931.84;10434345;28;20040;-29
2022/12/23 02:26:17;;;;;;;9.75;6.50;;;;;;;17.11;59.19;95932.69;10446816;28;20036;-29
2022/12/23 02:31:27;;;;;;;9.25;6.72;;;;;;;17.12;59.40;95944.50;10443729;28;20451;-29
2022/12/23 02:36:52;;;;;;;11.50;6.38;;;;;;;17.12;59.22;95930.16;10438208;28;20477;-29
2022/12/23 02:41:58;;;;;;;9.05;6.40;;;;;;;17.06;59.34;95912.50;10436246;28;20037;-29
2022/12/23 02:47:05;;;;;;;9.77;6.47;;;;;;;17.13;59.02;95931.00;10439279;28;20495;-29
2022/12/23 02:52:18;;;;;;;10.77;6.32;;;;;;;17.12;59.32;95926.78;10433431;28;20131;-29
2022/12/23 02:57:25;;;;;;;8.75;5.65;;;;;;;17.04;58.87;95918.41;10438236;28;20029;-29
2022/12/23 03:02:25;;;;;;;9.07;6.00;;;;;;;17.12;58.94;95924.25;10437850;28;20025;-29
2022/12/23 03:07:32;;;;;;;8.33;5.63;;;;;;;17.12;58.89;95934.38;10445618;28;20037;-28
2022/12/23 03:12:43;;;;;;;9.15;6.75;;;;;;;17.10;59.20;95946.19;10429919;28;20041;-29
2022/12/23 03:17:56;;;;;;;7.68;5.78;;;;;;;17.12;59.50;95941.97;10435946;28;20405;-29
2022/12/23 03:23:12;;;;;;;9.52;6.07;;;;;;;17.11;59.50;95948.72;10439512;28;20029;-29
2022/12/23 03:28:24;;;;;;;11.00;6.37;;;;;;;17.11;60.29;95950.41;10436617;28;20032;-29
2022/12/23 03:33:47;;;;;;;7.18;5.40;;;;;;;17.11;60.23;95947.88;10432246;28;21275;-28
2022/12/23 03:38:48;;;;;;;6.93;5.43;;;;;;;17.11;59.71;95948.72;10429808;28;20033;-29
2022/12/23 03:43:58;;;;;;;8.38;5.25;;;;;;;17.10;59.21;95941.16;10435862;28;20044;-28
2022/12/23 03:49:04;;;;;;;9.50;6.05;;;;;;;17.11;59.52;95942.81;10443295;28;20043;-29
2022/12/23 03:54:16;;;;;;;9.35;5.63;;;;;;;17.10;59.13;95943.66;10436436;28;20126;-28
2022/12/23 03:59:24;;;;;;;9.40;5.07;;;;;;;17.10;59.32;95952.09;10435280;28;20041;-28
2022/12/23 04:04:55;;;;;;;8.27;5.97;;;;;;;17.10;59.26;95948.72;10432878;28;20071;-28
2022/12/23 04:09:57;;;;;;;8.00;6.68;;;;;;;17.10;59.33;95947.06;10432720;28;20033;-28
2022/12/23 04:14:57;;;;;;;7.32;4.88;;;;;;;17.10;59.61;95933.56;10439941;28;20060;-28
2022/12/23 04:19:57;;;;;;;6.90;4.77;;;;;;;17.10;59.45;95946.19;10437012;28;20029;-29
2022/12/23 04:24:58;;;;;;;10.17;5.67;;;;;;;17.10;59.75;95968.97;10449448;28;20287;-29
2022/12/23 04:29:58;;;;;;;9.17;5.00;;;;;;;17.09;59.73;95955.47;10439210;28;20280;-29
2022/12/23 04:34:59;;;;;;;5.97;4.80;;;;;;;17.08;59.14;95955.50;10438493;28;20028;-29
2022/12/23 04:39:59;;;;;;;5.80;4.50;;;;;;;17.16;58.93;95971.47;10440227;28;20029;-29
2022/12/23 04:44:59;;;;;;;10.53;6.10;;;;;;;17.18;59.55;95974.81;10443245;28;20033;-30
2022/12/23 04:50:00;;;;;;;8.30;5.60;;;;;;;17.17;59.66;95966.38;10434113;28;20033;-28
2022/12/23 04:55:00;;;;;;;9.25;5.22;;;;;;;17.17;60.10;95952.91;10435569;28;20039;-29
2022/12/23 05:00:01;;;;;;;6.67;4.40;;;;;;;17.19;58.95;95956.25;10446544;28;20480;-28
2022/12/23 05:05:01;;;;;;;7.63;4.85;;;;;;;17.20;58.77;95978.16;10451404;28;20029;-28
2022/12/23 05:10:01;;;;;;;6.70;4.90;;;;;;;17.22;58.95;95976.44;10450760;28;20565;-28
2022/12/23 05:15:02;;;;;;;8.13;5.10;;;;;;;17.24;58.17;95970.53;10451526;28;20102;-28
2022/12/23 05:20:03;;;;;;;7.68;4.90;;;;;;;17.23;59.13;95973.91;10442465;28;20060;-28
2022/12/23 05:25:03;;;;;;;6.65;4.95;;;;;;;17.23;58.62;95962.97;10441320;28;20033;-28
2022/12/23 05:30:05;;;;;;;5.53;4.30;;;;;;;17.26;58.68;95978.13;10449043;28;20027;-28
2022/12/23 05:35:06;;;;;;;6.72;4.68;;;;;;;17.26;58.25;95973.88;10441725;28;20509;-29
2022/12/23 05:40:07;;;;;;;11.50;5.65;;;;;;;17.27;58.51;95980.66;10442107;28;20123;-29
2022/12/23 05:45:08;;;;;;;6.68;4.85;;;;;;;17.26;58.56;95973.06;10446497;28;20041;-29
2022/12/23 05:50:09;;;;;;;5.90;4.22;;;;;;;17.27;58.46;95984.84;10447173;28;20072;-29
2022/12/23 05:55:09;;;;;;;6.13;4.13;;;;;;;17.28;58.69;95981.47;10438532;28;20120;-28
2022/12/23 06:00:10;;;;;;;8.27;4.63;;;;;;;17.29;58.86;95978.94;10444166;28;20017;-29
2022/12/23 06:05:13;;;;;;;5.88;4.55;;;;;;;17.30;59.48;95997.47;10414373;28;20060;-28
2022/12/23 06:10:14;;;;;;;6.45;4.30;;;;;;;17.29;59.55;95983.16;10395320;28;20037;-28
2022/12/23 06:15:14;;;;;;;6.50;4.50;;;;;;;17.29;59.42;95975.56;10397091;28;20067;-29
2022/12/23 06:20:15;;;;;;;5.72;3.83;;;;;;;17.29;59.58;95984.00;10401737;28;20033;-29
2022/12/23 06:25:15;;;;;;;6.55;3.90;;;;;;;17.28;59.83;95981.47;10429464;28;20035;-29
2022/12/23 06:30:16;;;;;;;8.27;5.40;;;;;;;17.29;59.49;95983.16;10404578;28;20048;-28
2022/12/23 06:35:16;;;;;;;9.77;4.43;;;;;;;17.27;59.60;95972.22;10406740;28;20590;-29
2022/12/23 06:40:16;;;;;;;7.63;3.83;;;;;;;17.26;59.25;95973.06;10405311;28;20284;-29
2022/12/23 06:45:17;;;;;;;6.20;4.00;;;;;;;17.25;59.66;95981.50;10439494;28;20075;-29
2022/12/23 06:50:17;;;;;;;4.87;3.80;;;;;;;17.27;59.42;95987.38;10441449;28;20271;-29
2022/12/23 06:55:17;;;;;;;9.43;4.67;;;;;;;17.23;60.32;95978.97;10435896;28;20703;-29
2022/12/23 07:00:18;;;;;;;5.20;3.37;;;;;;;17.21;59.74;95974.78;10445148;28;20036;-29
2022/12/23 07:05:19;;;;;;;10.10;4.45;;;;;;;17.24;60.27;95985.72;10431969;28;20299;-29
2022/12/23 07:10:20;;;;;;;7.40;4.22;;;;;;;17.26;59.71;95988.25;10436584;28;20033;-29
2022/12/23 07:15:20;;;;;;;6.93;4.50;;;;;;;17.26;59.43;96006.78;10442096;28;20041;-29
2022/12/23 07:20:20;;;;;;;18.70;6.10;;;;;;;17.21;61.88;96030.41;10434502;28;20029;-31
2022/12/23 07:25:21;;;;;;;20.60;8.00;;;;;;;17.21;62.68;96031.28;10437668;28;20075;-28
2022/12/23 07:30:22;;;;;;;15.30;7.23;;;;;;;17.21;62.93;96030.41;10433813;28;20033;-29
2022/12/23 07:35:23;;;;;;;13.77;6.70;;;;;;;17.20;61.04;96031.28;10429538;28;20294;-29
2022/12/23 07:40:24;;;;;;;13.80;7.87;;;;;;;17.27;61.19;96020.28;10424745;28;20032;-29
2022/12/23 07:45:26;;;;;;;12.82;5.93;;;;;;;17.38;61.13;96011.78;10445856;28;20481;-29
2022/12/23 07:50:26;;;;;;;7.80;4.50;;;;;;;17.24;60.48;96020.31;10430618;28;20045;-28
2022/12/23 07:55:27;;;;;;;8.00;4.00;;;;;;;17.21;61.02;96020.31;10432423;28;20489;-29
2022/12/23 08:00:27;;;;;;;6.73;3.43;;;;;;;17.11;61.07;96021.22;10444034;28;20043;-28
2022/12/23 08:05:27;;;;;;;8.73;3.87;;;;;;;17.16;61.29;96027.09;10430748;28;20091;-28
2022/12/23 08:10:28;;;;;;;12.45;4.22;;;;;;;17.17;60.85;96043.94;10435606;28;20039;-31
2022/12/23 08:15:28;;;;;;;8.07;3.58;;;;;;;17.16;61.37;96057.44;10438527;28;20044;-29
2022/12/23 08:20:28;;;;;;;8.53;3.37;;;;;;;17.15;61.07;96049.00;10435188;28;20063;-29
2022/12/23 08:25:29;;;;;;;5.87;2.53;;;;;;;17.15;61.92;96058.31;10437781;28;20488;-29
2022/12/23 08:30:29;;;;;;;5.50;3.03;;;;;;;17.13;61.63;96044.81;10435227;28;20586;-29
2022/12/23 08:35:29;;;;;;;6.37;2.60;;;;;;;17.15;61.30;96023.72;10436723;28;20080;-29
2022/12/23 08:40:30;;;;;;;5.33;2.53;;;;;;;17.18;62.62;96046.47;10439357;28;20039;-30
2022/12/23 08:45:35;;;;;;;4.10;2.77;;;;;;;17.16;62.66;96039.75;10426989;28;20041;-29
2022/12/23 08:50:37;;;;;;;8.75;3.92;;;;;;;17.17;61.22;96028.78;10431459;28;20390;-29
2022/12/23 08:55:44;;;;;;;3.90;2.33;;;;;;;17.16;61.50;96050.69;10435829;28;20103;-29
2022/12/23 09:00:44;;;;;;;11.68;3.03;;;;;;;17.16;61.19;96047.34;10444281;28;20485;-29
2022/12/23 09:05:44;;;;;;;5.97;2.77;;;;;;;17.15;61.71;96050.72;10443398;28;20041;-29
2022/12/23 09:10:45;;;;;;;6.13;2.20;;;;;;;17.13;60.93;96044.81;10438955;28;20033;-29
2022/12/23 09:15:45;;;;;;;8.40;2.30;;;;;;;17.16;62.07;96043.09;10451263;28;20029;-29
2022/12/23 09:20:46;;;;;;;7.43;2.53;;;;;;;17.17;61.64;96038.91;10444920;28;20044;-30
2022/12/23 09:25:46;;;;;;;5.53;2.23;;;;;;;17.16;61.71;96037.22;10445541;28;20037;-29
2022/12/23 09:30:46;;;;;;;3.77;2.00;;;;;;;17.16;61.84;96048.16;10442044;28;20945;-29
2022/12/23 09:35:47;;;;;;;5.22;1.80;;;;;;;17.13;61.80;96054.91;10443352;28;20033;-30
2022/12/23 09:40:47;;;;;;;4.70;2.40;;;;;;;17.10;60.71;96052.41;10438764;28;20036;-29
2022/12/23 09:46:00;;;;;;;6.33;2.37;;;;;;;17.09;62.52;96055.78;10442555;28;20040;-29
2022/12/23 09:51:02;;;;;;;7.47;2.08;;;;;;;17.10;61.95;96063.38;10444108;28;20896;-29
2022/12/23 09:56:24;;;;;;;6.35;2.65;;;;;;;17.11;63.04;96049.03;10438103;28;20025;-29
2022/12/23 10:01:34;;;;;;;5.53;2.35;;;;;;;17.13;63.12;96057.44;10444183;28;20096;-29
2022/12/23 10:06:36;;;;;;;5.55;2.83;;;;;;;17.13;62.81;96048.19;10429010;28;20451;-30
2022/12/23 10:11:42;;;;;;;4.63;1.92;;;;;;;17.15;62.04;96040.59;10448377;28;20041;-28
2022/12/23 10:16:53;;;;;;;3.65;1.83;;;;;;;17.03;60.54;96028.00;10437494;28;20037;-29
2022/12/23 10:22:02;;;;;;;4.72;2.33;;;;;;;17.13;61.80;96027.09;10448055;28;20068;-29
2022/12/23 10:27:29;;;;;;;4.50;1.77;;;;;;;17.12;61.96;96026.28;10439612;28;20037;-29
2022/12/23 10:32:49;;;;;;;4.78;1.60;;;;;;;17.12;61.83;96020.34;10438705;28;20280;-29
2022/12/23 10:38:27;;;;;;;3.88;2.05;;;;;;;17.10;61.45;96009.41;10448373;28;20489;-29
2022/12/23 10:43:59;;;;;;;10.52;3.08;;;;;;;17.10;62.53;96006.91;10407457;28;20533;-29
2022/12/23 10:49:33;;;;;;;8.10;2.63;;;;;;;17.12;63.06;95982.44;10436585;28;20095;-30
2022/12/23 10:54:35;;;;;;;9.68;2.95;;;;;;;17.05;62.95;95955.50;10435065;28;20033;-29
2022/12/23 10:59:36;;;;;;;8.43;2.92;;;;;;;17.09;62.67;95972.34;10432040;28;20024;-29
2022/12/23 11:04:43;;;;;;;8.83;2.53;;;;;;;17.10;62.71;95972.34;10445181;28;20492;-29
2022/12/23 11:09:47;;;;;;;4.72;2.65;;;;;;;17.11;61.38;95965.56;10433396;28;20055;-31
2022/12/23 11:14:55;;;;;;;9.15;2.50;;;;;;;17.11;63.01;95958.00;10443154;28;20034;-29
2022/12/23 11:20:14;;;;;;;7.60;2.70;;;;;;;17.17;62.84;95950.38;10427208;28;20078;-34
2022/12/23 11:25:41;;;;;;;9.02;2.70;;;;;;;17.18;61.73;95939.41;10446787;28;20108;-29
2022/12/23 11:30:50;;;;;;;5.15;2.65;;;;;;;17.22;60.86;95928.38;10426820;28;20120;-29
2022/12/23 11:36:26;;;;;;;8.50;2.90;;;;;;;17.22;61.31;95930.91;10432617;28;20041;-29
2022/12/23 11:41:32;;;;;;;5.25;1.92;;;;;;;17.24;61.20;95914.06;10425202;28;20479;-29
2022/12/23 11:46:33;;;;;;;5.20;2.42;;;;;;;17.24;60.86;95931.78;10430705;28;20096;-29
2022/12/23 11:51:34;;;;;;;7.32;2.42;;;;;;;17.22;61.55;95906.47;10439189;28;20079;-30
2022/12/23 11:56:38;;;;;;;3.80;2.03;;;;;;;17.25;61.44;95906.44;10427077;28;20083;-29
2022/12/23 12:01:38;;;;;;;6.15;3.22;;;;;;;17.26;61.21;95912.34;10435751;28;20914;-30
2022/12/23 12:06:44;;;;;;;3.80;2.50;;;;;;;17.23;60.12;95876.97;10433332;28;20045;-29
2022/12/23 12:11:52;;;;;;;8.48;2.88;;;;;;;17.28;60.77;95883.66;10430674;28;20037;-30
2022/12/23 12:16:58;;;;;;;3.92;2.22;;;;;;;17.30;60.72;95898.81;10427327;28;20040;-29
2022/12/23 12:22:04;;;;;;;4.57;2.50;;;;;;;17.31;60.57;95890.41;10430409;28;20033;-29
2022/12/23 12:27:06;;;;;;;4.18;2.08;;;;;;;17.27;61.13;95884.53;10438283;28;20041;-30
2022/12/23 12:32:40;;;;;;;4.88;2.67;;;;;;;17.25;61.95;95890.44;10439599;28;20033;-29
2022/12/23 12:37:52;;;;;;;3.75;2.10;;;;;;;17.24;62.46;95874.41;10419065;28;20496;-29
2022/12/23 12:43:03;;;;;;;4.15;2.25;;;;;;;17.25;61.63;95860.09;10427114;28;20102;-29
2022/12/23 12:48:21;;;;;;;4.68;2.28;;;;;;;17.29;60.81;95857.53;10453130;28;20396;-29
2022/12/23 12:53:22;;;;;;;5.22;2.50;;;;;;;17.29;60.71;95856.66;10437846;28;20052;-29
2022/12/23 12:58:23;;;;;;;4.22;1.83;;;;;;;17.29;60.57;95833.91;10439336;28;20389;-29
2022/12/23 13:03:23;;;;;;;4.50;2.47;;;;;;;17.28;61.17;95815.38;10436090;28;20029;-29
2022/12/23 13:09:09;;;;;;;5.85;2.63;;;;;;;17.28;61.29;95845.72;10451635;28;20044;-29
2022/12/23 13:14:26;;;;;;;5.78;2.20;;;;;;;17.26;61.53;95856.72;10451190;28;20037;-29
2022/12/23 13:19:33;;;;;;;;;;;;;;;17.27;61.40;95865.97;10447524;28;20485;-29
2022/12/23 13:25:00;;;;;;;4.35;2.03;;;;;;;17.25;60.93;95829.75;10441975;28;19917;-29
2022/12/23 13:30:13;;;;;;;4.82;1.77;;;;;;;17.22;61.36;95822.16;10442053;28;20053;-30
2022/12/23 13:35:13;;;;;;;3.17;1.83;;;;;;;17.23;60.72;95806.16;10444871;28;20025;-29
2022/12/23 13:40:35;;;;;;;3.00;2.05;;;;;;;17.21;61.05;95836.50;10438926;28;20052;-29
2022/12/23 13:45:38;;;;;;;4.13;2.45;;;;;;;17.22;61.02;95847.44;10418576;28;20033;-29
2022/12/23 13:51:10;;;;;;;5.75;1.90;;;;;;;17.27;60.60;95846.59;10450197;28;20033;-29
2022/12/23 13:56:39;;;;;;;7.15;3.55;;;;;;;17.23;62.81;95817.09;10411692;28;20072;-30
2022/12/23 14:01:39;;;;;;;3.45;1.90;;;;;;;17.24;62.92;95828.06;10411401;28;20041;-29
2022/12/23 14:06:43;;;;;;;7.60;2.38;;;;;;;17.24;62.18;95835.66;10442384;28;20504;-29
2022/12/23 14:11:44;;;;;;;5.18;2.65;;;;;;;17.23;62.34;95834.81;10447449;28;20025;-29
2022/12/23 14:16:47;;;;;;;5.65;2.15;;;;;;;17.18;62.67;95845.81;10437356;28;20033;-30
2022/12/23 14:22:03;;;;;;;5.63;1.52;;;;;;;17.22;62.26;95871.06;10446300;28;20123;-29
2022/12/23 14:27:21;;;;;;;3.65;1.80;;;;;;;17.21;61.99;95861.81;10438987;28;20158;-29
2022/12/23 14:32:27;;;;;;;4.40;1.52;;;;;;;17.18;62.05;95869.44;10425031;28;20559;-28
2022/12/23 14:37:33;;;;;;;4.90;2.72;;;;;;;17.21;62.34;95873.59;10446105;28;20021;-30
2022/12/23 14:42:41;;;;;;;4.10;1.70;;;;;;;17.20;62.90;95882.03;10437905;28;20397;-29
2022/12/23 14:47:45;;;;;;;3.15;2.00;;;;;;;17.22;62.27;95910.69;10436540;28;20670;-30
2022/12/23 14:52:57;;;;;;;4.10;1.80;;;;;;;17.21;62.01;95919.13;10437377;28;20031;-29
2022/12/23 14:58:15;;;;;;;4.28;1.75;;;;;;;17.20;61.81;95925.91;10439874;28;20606;-29
2022/12/23 15:03:18;;;;;;;4.68;1.75;;;;;;;17.14;62.44;95942.81;10435051;28;20033;-30
2022/12/23 15:08:39;;;;;;;4.13;2.15;;;;;;;17.21;62.90;95934.31;10427775;28;20037;-29
2022/12/23 15:13:41;;;;;;;3.90;1.75;;;;;;;17.21;63.19;95935.16;10424082;28;20040;-29
2022/12/23 15:18:54;;;;;;;5.63;1.70;;;;;;;17.22;62.34;95930.91;10422815;28;20051;-29
2022/12/23 15:23:55;;;;;;;3.90;1.63;;;;;;;17.20;63.64;95927.56;10440454;28;20044;-29
2022/12/23 15:28:57;;;;;;;2.88;1.85;;;;;;;17.17;63.04;95927.59;10451733;28;20029;-29
2022/12/23 15:34:01;;;;;;;3.08;1.85;;;;;;;17.11;62.88;95941.13;10442965;28;20032;-29
2022/12/23 15:39:08;;;;;;;7.78;1.90;;;;;;;17.10;62.04;95951.25;10443606;28;20029;-29
2022/12/23 15:44:14;;;;;;;5.07;1.33;;;;;;;17.07;63.30;95942.00;10428509;28;20033;-29
2022/12/23 15:49:15;;;;;;;5.97;2.60;;;;;;;17.07;63.85;95946.22;10432852;28;20095;-29
2022/12/23 15:54:38;;;;;;;5.30;1.50;;;;;;;17.12;63.62;95939.44;10440148;28;20037;-29
2022/12/23 15:59:39;;;;;;;7.80;1.73;;;;;;;17.14;63.16;95945.34;10456324;28;20107;-30
2022/12/23 16:04:39;;;;;;;6.63;1.70;;;;;;;17.14;63.03;95927.63;10440906;28;20600;-30
2022/12/23 16:09:40;;;;;;;4.60;1.93;;;;;;;17.13;63.08;95915.81;10429835;28;20288;-31
2022/12/23 16:14:48;;;;;;;4.40;1.80;;;;;;;17.12;63.42;95930.16;10439771;28;20284;-31
2022/12/23 16:19:51;;;;;;;3.53;1.58;;;;;;;17.17;63.44;95932.66;10434196;28;20841;-29
2022/12/23 16:24:56;;;;;;;10.05;1.80;;;;;;;17.19;63.24;95946.13;10435062;28;20504;-29
2022/12/23 16:30:01;;;;;;;3.50;1.80;;;;;;;17.18;63.00;95954.56;10438780;28;20500;-29
2022/12/23 16:35:10;;;;;;;4.47;1.67;;;;;;;17.17;61.96;95948.66;10440169;28;20543;-30
2022/12/23 16:40:13;;;;;;;4.22;1.58;;;;;;;17.21;61.84;95959.59;10441788;28;20052;-30
2022/12/23 16:45:14;;;;;;;5.22;1.58;;;;;;;17.19;62.82;95953.72;10437085;28;20041;-30
2022/12/23 16:50:14;;;;;;;9.37;1.60;;;;;;;17.18;63.15;95974.81;10437898;28;20037;-30
2022/12/23 16:55:17;;;;;;;3.50;1.42;;;;;;;17.18;63.01;95936.88;10431689;28;20512;-30
2022/12/23 17:00:18;;;;;;;6.63;1.60;;;;;;;17.20;62.18;95932.63;10433769;28;20029;-30
2022/12/23 17:05:20;;;;;;;4.20;1.30;;;;;;;17.17;63.21;95925.06;10443655;28;20045;-30
2022/12/23 17:10:21;;;;;;;3.70;1.55;;;;;;;17.22;62.25;95920.81;10441168;28;20061;-29
2022/12/23 17:15:24;;;;;;;5.32;1.83;;;;;;;17.24;60.73;95931.78;10445230;28;20140;-29
2022/12/23 17:20:24;;;;;;;6.13;1.60;;;;;;;17.24;63.68;95950.31;10445965;28;20056;-29
2022/12/23 17:25:25;;;;;;;3.85;1.58;;;;;;;17.28;62.84;95951.13;10450272;28;20128;-29
2022/12/23 17:30:25;;;;;;;3.90;1.25;;;;;;;17.31;63.69;95961.25;10440602;28;20081;-29
2022/12/23 17:35:25;;;;;;;5.50;1.40;;;;;;;17.28;63.81;95966.28;10443485;28;20029;-32
2022/12/23 17:40:26;;;;;;;3.83;1.43;;;;;;;17.24;63.93;95984.88;10442323;28;20059;-29
2022/12/23 17:45:29;;;;;;;7.87;1.60;;;;;;;17.19;64.02;95979.00;10431760;28;20037;-30
2022/12/23 17:50:33;;;;;;;6.80;1.58;;;;;;;17.25;63.74;95976.44;10441403;28;20299;-30
2022/12/23 17:55:33;;;;;;;5.90;1.60;;;;;;;17.24;62.18;95979.84;10432290;28;20037;-30
2022/12/23 18:00:35;;;;;;;5.57;1.67;;;;;;;17.26;63.71;95985.72;10436449;28;20653;-30
2022/12/23 18:05:36;;;;;;;4.53;1.52;;;;;;;17.28;63.94;95962.09;10435424;28;20386;-29
2022/12/23 18:10:39;;;;;;;3.37;1.30;;;;;;;17.27;63.62;96000.03;10432549;28;20044;-30
2022/12/23 18:15:41;;;;;;;5.60;2.33;;;;;;;17.29;63.43;96000.84;10436909;28;20053;-31
2022/12/23 18:20:44;;;;;;;3.85;0.98;;;;;;;17.28;63.29;96001.72;10433770;28;20029;-29
2022/12/23 18:25:44;;;;;;;2.53;1.52;;;;;;;17.28;62.83;96009.31;10435606;28;20033;-29
2022/12/23 18:30:45;;;;;;;4.63;1.57;;;;;;;17.29;62.91;96010.97;10431192;28;20037;-30
2022/12/23 18:35:48;;;;;;;6.00;1.55;;;;;;;17.27;63.23;96017.75;10442433;28;20440;-30
2022/12/23 18:40:51;;;;;;;8.13;2.65;;;;;;;17.26;63.73;96016.06;10436728;28;20408;-31
2022/12/23 18:45:51;;;;;;;4.57;1.77;;;;;;;17.26;64.15;96029.53;10437267;28;20045;-30
2022/12/23 18:50:52;;;;;;;5.23;2.60;;;;;;;17.28;64.43;96042.19;10428729;28;20493;-29
2022/12/23 18:55:53;;;;;;;4.03;1.90;;;;;;;17.27;64.09;96053.16;10428359;28;20299;-30
2022/12/23 19:00:53;;;;;;;3.08;1.40;;;;;;;17.27;63.93;96035.44;10436639;28;20186;-29
2022/12/23 19:05:55;;;;;;;4.25;1.60;;;;;;;17.26;64.30;96023.66;10434859;28;20055;-31
2022/12/23 19:10:55;;;;;;;4.32;2.05;;;;;;;17.27;64.30;96070.88;10433353;28;20075;-29
2022/12/23 19:15:56;;;;;;;9.63;1.85;;;;;;;17.25;64.68;96075.09;10439658;28;20773;-30
2022/12/23 19:20:56;;;;;;;7.77;1.53;;;;;;;17.27;64.04;96070.88;10430572;28;20190;-31
2022/12/23 19:25:56;;;;;;;13.97;2.63;;;;;;;17.27;64.53;96070.88;10433951;28;20083;-29
2022/12/23 19:30:57;;;;;;;8.73;2.90;;;;;;;17.24;63.08;96068.38;10440741;28;20036;-30
2022/12/23 19:35:57;;;;;;;15.50;5.53;;;;;;;17.45;65.99;96070.78;10435965;28;20029;-30
2022/12/23 19:40:58;;;;;;;16.58;6.25;;;;;;;17.40;64.54;96082.66;10424392;28;20090;-30
2022/12/23 19:46:00;;;;;;;8.83;3.83;;;;;;;17.45;60.60;96088.50;10433964;28;20790;-30
2022/12/23 19:51:04;;;;;;;8.90;3.63;;;;;;;17.46;60.55;96077.53;10433774;28;20119;-30
2022/12/23 19:56:09;;;;;;;16.95;4.22;;;;;;;17.50;60.22;96095.22;10434083;28;20025;-29
2022/12/23 20:01:12;;;;;;;9.57;3.40;;;;;;;17.51;59.27;96114.59;10433595;28;20048;-31
2022/12/23 20:06:18;;;;;;;8.55;3.47;;;;;;;17.49;59.45;96110.41;10437665;28;20036;-30
2022/12/23 20:11:21;;;;;;;8.90;3.63;;;;;;;17.48;59.54;96127.28;10439039;28;20618;-30
2022/12/23 20:16:22;;;;;;;8.82;3.95;;;;;;;17.47;59.18;96120.53;10428679;28;20052;-30
2022/12/23 20:21:23;;;;;;;11.55;5.72;;;;;;;17.55;63.98;96140.72;10423805;28;20033;-30
2022/12/23 20:26:25;;;;;;;18.00;6.22;;;;;;;17.59;63.87;96155.06;10428043;28;20041;-30
2022/12/23 20:31:28;;;;;;;11.50;3.60;;;;;;;17.56;61.37;96144.97;10439379;28;20485;-30
2022/12/23 20:36:31;;;;;;;9.27;3.97;;;;;;;17.52;59.14;96148.34;10429658;28;20036;-31
2022/12/23 20:41:32;;;;;;;6.55;3.75;;;;;;;17.52;59.42;96159.34;10432383;28;20044;-30
2022/12/23 20:46:32;;;;;;;9.90;3.92;;;;;;;17.41;59.15;96145.88;10434362;28;20497;-30
2022/12/23 20:51:33;;;;;;;3.90;2.10;;;;;;;17.20;58.56;96158.59;10436652;28;20032;-29
2022/12/23 20:56:33;;;;;;;2.17;1.30;;;;;;;17.10;58.08;96178.88;10432375;28;20112;-30
2022/12/23 21:01:37;;;;;;;5.93;1.93;;;;;;;17.12;57.92;96172.09;10440212;28;20033;-31
2022/12/23 21:06:37;;;;;;;7.20;2.58;;;;;;;17.27;59.32;96184.72;10434944;28;20034;-30
2022/12/23 21:11:41;;;;;;;11.23;3.60;;;;;;;17.36;60.38;96184.69;10444571;28;20025;-30
2022/12/23 21:16:42;;;;;;;15.55;3.50;;;;;;;17.44;60.94;96205.75;10447211;28;20056;-30
2022/12/23 21:21:44;;;;;;;10.90;3.28;;;;;;;17.40;60.70;96222.63;10445793;28;20028;-30
2022/12/23 21:26:45;;;;;;;7.28;3.50;;;;;;;17.41;60.02;96205.78;10445680;28;20536;-30
2022/12/23 21:31:46;;;;;;;9.40;3.83;;;;;;;17.39;61.03;96213.38;10448845;28;20146;-29
2022/12/23 21:36:46;;;;;;;5.85;3.28;;;;;;;17.40;60.57;96247.13;10448021;28;20036;-33
2022/12/23 21:41:49;;;;;;;6.93;3.30;;;;;;;17.39;60.69;96270.69;10446137;28;20161;-29
2022/12/23 21:46:50;;;;;;;7.60;3.38;;;;;;;17.40;61.97;96274.94;10446652;28;20072;-30
2022/12/23 21:51:50;;;;;;;8.38;3.70;;;;;;;17.41;62.16;96262.28;10449352;28;21500;-30
2022/12/23 21:56:50;;;;;;;7.87;3.40;;;;;;;17.39;62.10;96268.19;10440404;28;20515;-30
2022/12/23 22:01:51;;;;;;;9.13;3.37;;;;;;;17.45;62.82;96268.16;10449126;28;20511;-29
2022/12/23 22:06:52;;;;;;;8.18;3.50;;;;;;;17.48;62.68;96258.88;10442624;28;20079;-29
2022/12/23 22:11:52;;;;;;;6.03;3.03;;;;;;;17.46;62.05;96254.66;10446984;28;20128;-30
2022/12/23 22:16:52;;;;;;;8.10;3.60;;;;;;;17.38;61.44;96246.25;10445014;28;20723;-30
2022/12/23 22:21:53;;;;;;;8.97;4.63;;;;;;;17.43;61.05;96275.78;10437431;28;20523;-30
2022/12/23 22:26:53;;;;;;;8.20;3.77;;;;;;;17.41;61.28;96279.16;10441373;28;20041;-30
2022/12/23 22:31:53;;;;;;;7.00;3.53;;;;;;;17.42;60.63;96274.06;10445614;28;20040;-30
2022/12/23 22:36:54;;;;;;;6.07;3.50;;;;;;;17.42;60.31;96283.38;10442520;28;20040;-30
2022/12/23 22:41:54;;;;;;;6.53;3.73;;;;;;;17.42;60.95;96263.13;10443928;28;20438;-30
2022/12/23 22:46:54;;;;;;;7.50;3.27;;;;;;;17.43;59.42;96255.53;10444840;28;20493;-30
2022/12/23 22:51:55;;;;;;;7.87;3.60;;;;;;;17.43;63.24;96254.69;10443766;28;20032;-29
2022/12/23 22:56:55;;;;;;;8.63;3.83;;;;;;;17.47;63.16;96266.47;10445759;28;20029;-30
2022/12/23 23:01:55;;;;;;;8.93;3.90;;;;;;;17.43;62.23;96255.53;10444810;28;20029;-29
2022/12/23 23:06:56;;;;;;;6.22;3.03;;;;;;;17.46;60.37;96259.72;10445824;28;20401;-32
2022/12/23 23:11:56;;;;;;;5.47;2.97;;;;;;;17.45;58.55;96280.81;10443507;28;20139;-30
2022/12/23 23:16:57;;;;;;;7.70;3.47;;;;;;;17.43;57.96;96264.81;10444097;28;20051;-30
2022/12/23 23:21:57;;;;;;;5.77;2.40;;;;;;;17.42;57.73;96263.13;10441573;28;20094;-30
2022/12/23 23:26:57;;;;;;;5.80;2.80;;;;;;;17.42;57.37;96284.19;10440151;28;20118;-30
2022/12/23 23:31:59;;;;;;;6.20;2.70;;;;;;;17.41;57.82;96300.22;10443396;28;20047;-30
2022/12/23 23:37:00;;;;;;;5.95;3.25;;;;;;;17.40;57.01;96295.19;10438451;28;20028;-30
2022/12/23 23:42:00;;;;;;;4.05;2.40;;;;;;;17.38;56.87;96300.25;10445146;28;20473;-31
2022/12/23 23:47:01;;;;;;;7.57;3.30;;;;;;;17.42;62.85;96273.25;10443231;28;20502;-30
2022/12/23 23:52:01;;;;;;;11.40;4.60;;;;;;;17.45;63.27;96284.19;10444764;28;20032;-30
2022/12/23 23:57:01;;;;;;;6.53;2.93;;;;;;;17.43;61.20;96315.41;10444012;28;20033;-30
